sensor_id;sensor_type;location;lat;lon;timestamp;temperature;humidity
28297;DHT22;62078;49.366;8.172;2023-09-08T00:01:58;23.60;57.50
28297;DHT22;62078;49.366;8.172;2023-09-08T00:04:23;23.60;57.50
28297;DHT22;62078;49.366;8.172;2023-09-08T00:06:49;23.60;57.50
28297;DHT22;62078;49.366;8.172;2023-09-08T00:09:15;23.60;57.50
28297;DHT22;62078;49.366;8.172;2023-09-08T00:11:41;23.60;57.50
28297;DHT22;62078;49.366;8.172;2023-09-08T00:14:07;23.60;57.50
28297;DHT22;62078;49.366;8.172;2023-09-08T00:16:32;23.50;57.50
28297;DHT22;62078;49.366;8.172;2023-09-08T00:18:58;23.50;57.50
28297;DHT22;62078;49.366;8.172;2023-09-08T00:21:25;23.50;57.50
28297;DHT22;62078;49.366;8.172;2023-09-08T00:23:53;23.50;57.50
28297;DHT22;62078;49.366;8.172;2023-09-08T00:26:19;23.50;57.50
28297;DHT22;62078;49.366;8.172;2023-09-08T00:28:45;23.50;57.50
28297;DHT22;62078;49.366;8.172;2023-09-08T00:31:11;23.50;57.50
28297;DHT22;62078;49.366;8.172;2023-09-08T00:33:37;23.50;57.50
28297;DHT22;62078;49.366;8.172;2023-09-08T00:36:03;23.50;57.50
28297;DHT22;62078;49.366;8.172;2023-09-08T00:38:29;23.50;57.50
28297;DHT22;62078;49.366;8.172;2023-09-08T00:40:55;23.50;57.60
28297;DHT22;62078;49.366;8.172;2023-09-08T00:43:20;23.40;57.50
28297;DHT22;62078;49.366;8.172;2023-09-08T00:45:46;23.40;57.40
28297;DHT22;62078;49.366;8.172;2023-09-08T00:48:13;23.50;57.50
28297;DHT22;62078;49.366;8.172;2023-09-08T00:50:39;23.50;57.60
28297;DHT22;62078;49.366;8.172;2023-09-08T00:53:06;23.50;57.60
28297;DHT22;62078;49.366;8.172;2023-09-08T00:55:32;23.50;58.10
28297;DHT22;62078;49.366;8.172;2023-09-08T00:57:59;23.50;57.50
28297;DHT22;62078;49.366;8.172;2023-09-08T01:00:25;23.50;57.50
28297;DHT22;62078;49.366;8.172;2023-09-08T01:02:51;23.50;57.60
28297;DHT22;62078;49.366;8.172;2023-09-08T01:05:17;23.40;57.50
28297;DHT22;62078;49.366;8.172;2023-09-08T01:07:44;23.40;57.50
28297;DHT22;62078;49.366;8.172;2023-09-08T01:10:10;23.40;57.50
28297;DHT22;62078;49.366;8.172;2023-09-08T01:12:36;23.50;57.60
28297;DHT22;62078;49.366;8.172;2023-09-08T01:15:03;23.40;57.60
28297;DHT22;62078;49.366;8.172;2023-09-08T01:17:30;23.40;57.60
28297;DHT22;62078;49.366;8.172;2023-09-08T01:19:58;23.40;57.70
28297;DHT22;62078;49.366;8.172;2023-09-08T01:25:29;23.40;57.70
28297;DHT22;62078;49.366;8.172;2023-09-08T01:28:00;23.50;57.90
28297;DHT22;62078;49.366;8.172;2023-09-08T01:30:28;23.40;57.90
28297;DHT22;62078;49.366;8.172;2023-09-08T01:32:58;23.40;57.90
28297;DHT22;62078;49.366;8.172;2023-09-08T01:35:25;23.40;57.90
28297;DHT22;62078;49.366;8.172;2023-09-08T01:37:50;23.40;57.80
28297;DHT22;62078;49.366;8.172;2023-09-08T01:40:16;23.40;57.80
28297;DHT22;62078;49.366;8.172;2023-09-08T01:42:45;23.40;57.80
28297;DHT22;62078;49.366;8.172;2023-09-08T01:45:11;23.40;57.70
28297;DHT22;62078;49.366;8.172;2023-09-08T01:47:37;23.30;57.60
28297;DHT22;62078;49.366;8.172;2023-09-08T01:50:03;23.30;57.60
28297;DHT22;62078;49.366;8.172;2023-09-08T01:52:29;23.30;57.60
28297;DHT22;62078;49.366;8.172;2023-09-08T01:54:54;23.30;57.60
28297;DHT22;62078;49.366;8.172;2023-09-08T01:57:20;23.30;57.60
28297;DHT22;62078;49.366;8.172;2023-09-08T01:59:46;23.30;57.60
28297;DHT22;62078;49.366;8.172;2023-09-08T02:02:13;23.30;57.60
28297;DHT22;62078;49.366;8.172;2023-09-08T02:04:39;23.30;57.60
28297;DHT22;62078;49.366;8.172;2023-09-08T02:07:04;23.30;57.60
28297;DHT22;62078;49.366;8.172;2023-09-08T02:09:36;23.30;57.60
28297;DHT22;62078;49.366;8.172;2023-09-08T02:12:03;23.30;57.50
28297;DHT22;62078;49.366;8.172;2023-09-08T02:14:29;23.30;57.60
28297;DHT22;62078;49.366;8.172;2023-09-08T02:16:56;23.30;57.60
28297;DHT22;62078;49.366;8.172;2023-09-08T02:19:22;23.30;57.50
28297;DHT22;62078;49.366;8.172;2023-09-08T02:21:48;23.30;57.50
28297;DHT22;62078;49.366;8.172;2023-09-08T02:24:14;23.20;57.50
28297;DHT22;62078;49.366;8.172;2023-09-08T02:26:40;23.20;57.50
28297;DHT22;62078;49.366;8.172;2023-09-08T02:29:06;23.20;57.50
28297;DHT22;62078;49.366;8.172;2023-09-08T02:31:33;23.20;57.50
28297;DHT22;62078;49.366;8.172;2023-09-08T02:33:59;23.20;57.50
28297;DHT22;62078;49.366;8.172;2023-09-08T02:36:24;23.20;57.50
28297;DHT22;62078;49.366;8.172;2023-09-08T02:38:54;23.20;57.50
28297;DHT22;62078;49.366;8.172;2023-09-08T02:41:20;23.20;57.50
28297;DHT22;62078;49.366;8.172;2023-09-08T02:43:46;23.30;57.80
28297;DHT22;62078;49.366;8.172;2023-09-08T02:46:12;23.50;57.90
28297;DHT22;62078;49.366;8.172;2023-09-08T02:48:38;23.50;57.80
28297;DHT22;62078;49.366;8.172;2023-09-08T02:51:04;23.60;57.80
28297;DHT22;62078;49.366;8.172;2023-09-08T02:53:30;23.60;57.80
28297;DHT22;62078;49.366;8.172;2023-09-08T02:55:57;23.60;57.80
28297;DHT22;62078;49.366;8.172;2023-09-08T02:58:23;23.70;57.90
28297;DHT22;62078;49.366;8.172;2023-09-08T03:00:49;23.70;57.90
28297;DHT22;62078;49.366;8.172;2023-09-08T03:03:15;23.70;58.00
28297;DHT22;62078;49.366;8.172;2023-09-08T03:05:41;23.70;58.10
28297;DHT22;62078;49.366;8.172;2023-09-08T03:08:07;23.70;58.10
28297;DHT22;62078;49.366;8.172;2023-09-08T03:10:33;23.70;58.20
28297;DHT22;62078;49.366;8.172;2023-09-08T03:13:05;23.70;58.10
28297;DHT22;62078;49.366;8.172;2023-09-08T03:15:31;23.70;58.10
28297;DHT22;62078;49.366;8.172;2023-09-08T03:18:00;23.70;58.20
28297;DHT22;62078;49.366;8.172;2023-09-08T03:20:26;23.80;58.30
28297;DHT22;62078;49.366;8.172;2023-09-08T03:22:52;23.80;58.30
28297;DHT22;62078;49.366;8.172;2023-09-08T03:25:18;23.80;58.20
28297;DHT22;62078;49.366;8.172;2023-09-08T03:27:44;23.80;58.20
28297;DHT22;62078;49.366;8.172;2023-09-08T03:30:10;23.80;58.30
28297;DHT22;62078;49.366;8.172;2023-09-08T03:32:36;23.80;58.30
28297;DHT22;62078;49.366;8.172;2023-09-08T03:35:03;23.70;58.90
28297;DHT22;62078;49.366;8.172;2023-09-08T03:37:30;23.70;58.30
28297;DHT22;62078;49.366;8.172;2023-09-08T03:39:55;23.80;58.30
28297;DHT22;62078;49.366;8.172;2023-09-08T03:42:21;23.70;58.20
28297;DHT22;62078;49.366;8.172;2023-09-08T03:44:47;23.80;58.20
28297;DHT22;62078;49.366;8.172;2023-09-08T03:47:13;23.80;58.80
28297;DHT22;62078;49.366;8.172;2023-09-08T03:49:39;23.80;58.20
28297;DHT22;62078;49.366;8.172;2023-09-08T03:52:04;23.70;58.20
28297;DHT22;62078;49.366;8.172;2023-09-08T03:54:30;23.80;58.20
28297;DHT22;62078;49.366;8.172;2023-09-08T03:56:56;23.80;58.20
28297;DHT22;62078;49.366;8.172;2023-09-08T03:59:22;23.80;58.20
28297;DHT22;62078;49.366;8.172;2023-09-08T04:01:47;23.80;58.20
28297;DHT22;62078;49.366;8.172;2023-09-08T04:04:13;23.80;58.20
28297;DHT22;62078;49.366;8.172;2023-09-08T04:06:39;23.80;58.20
28297;DHT22;62078;49.366;8.172;2023-09-08T04:09:04;23.80;58.20
28297;DHT22;62078;49.366;8.172;2023-09-08T04:11:30;23.70;58.10
28297;DHT22;62078;49.366;8.172;2023-09-08T04:13:56;23.20;55.70
28297;DHT22;62078;49.366;8.172;2023-09-08T04:16:22;22.20;57.00
28297;DHT22;62078;49.366;8.172;2023-09-08T04:18:48;21.60;58.50
28297;DHT22;62078;49.366;8.172;2023-09-08T04:21:13;21.00;60.00
28297;DHT22;62078;49.366;8.172;2023-09-08T04:23:39;20.80;61.20
28297;DHT22;62078;49.366;8.172;2023-09-08T04:26:05;20.70;61.30
28297;DHT22;62078;49.366;8.172;2023-09-08T04:28:31;20.70;62.00
28297;DHT22;62078;49.366;8.172;2023-09-08T04:30:56;20.80;61.50
28297;DHT22;62078;49.366;8.172;2023-09-08T04:33:23;20.70;61.70
28297;DHT22;62078;49.366;8.172;2023-09-08T04:35:49;20.70;62.00
28297;DHT22;62078;49.366;8.172;2023-09-08T04:38:15;20.60;61.80
28297;DHT22;62078;49.366;8.172;2023-09-08T04:40:41;20.50;63.00
28297;DHT22;62078;49.366;8.172;2023-09-08T04:43:07;20.40;62.50
28297;DHT22;62078;49.366;8.172;2023-09-08T04:45:33;20.40;62.70
28297;DHT22;62078;49.366;8.172;2023-09-08T04:47:59;20.30;62.90
28297;DHT22;62078;49.366;8.172;2023-09-08T04:50:24;20.40;63.10
28297;DHT22;62078;49.366;8.172;2023-09-08T04:52:50;20.70;62.90
28297;DHT22;62078;49.366;8.172;2023-09-08T04:55:17;20.90;61.80
28297;DHT22;62078;49.366;8.172;2023-09-08T04:57:42;21.00;61.40
28297;DHT22;62078;49.366;8.172;2023-09-08T05:00:09;21.00;61.20
28297;DHT22;62078;49.366;8.172;2023-09-08T05:02:35;21.00;61.10
28297;DHT22;62078;49.366;8.172;2023-09-08T05:05:00;21.00;61.00
28297;DHT22;62078;49.366;8.172;2023-09-08T05:07:26;21.10;61.10
28297;DHT22;62078;49.366;8.172;2023-09-08T05:09:52;21.10;60.90
28297;DHT22;62078;49.366;8.172;2023-09-08T05:12:18;21.10;60.90
28297;DHT22;62078;49.366;8.172;2023-09-08T05:14:43;21.10;60.90
28297;DHT22;62078;49.366;8.172;2023-09-08T05:17:10;21.00;61.00
28297;DHT22;62078;49.366;8.172;2023-09-08T05:19:36;20.90;61.40
28297;DHT22;62078;49.366;8.172;2023-09-08T05:22:05;20.90;61.70
28297;DHT22;62078;49.366;8.172;2023-09-08T05:24:32;20.90;61.50
28297;DHT22;62078;49.366;8.172;2023-09-08T05:26:58;20.90;61.50
28297;DHT22;62078;49.366;8.172;2023-09-08T05:29:24;21.00;61.70
28297;DHT22;62078;49.366;8.172;2023-09-08T05:31:49;21.00;61.60
28297;DHT22;62078;49.366;8.172;2023-09-08T05:34:15;21.00;61.70
28297;DHT22;62078;49.366;8.172;2023-09-08T05:36:41;21.00;61.60
28297;DHT22;62078;49.366;8.172;2023-09-08T05:39:08;20.80;62.10
28297;DHT22;62078;49.366;8.172;2023-09-08T05:41:33;20.70;63.10
28297;DHT22;62078;49.366;8.172;2023-09-08T05:44:00;20.80;62.80
28297;DHT22;62078;49.366;8.172;2023-09-08T05:46:26;20.80;62.70
28297;DHT22;62078;49.366;8.172;2023-09-08T05:48:52;20.80;63.50
28297;DHT22;62078;49.366;8.172;2023-09-08T05:51:18;20.80;63.20
28297;DHT22;62078;49.366;8.172;2023-09-08T05:53:44;21.00;62.90
28297;DHT22;62078;49.366;8.172;2023-09-08T05:56:10;21.00;62.70
28297;DHT22;62078;49.366;8.172;2023-09-08T05:58:35;21.10;62.80
28297;DHT22;62078;49.366;8.172;2023-09-08T06:01:02;21.20;62.60
28297;DHT22;62078;49.366;8.172;2023-09-08T06:03:28;21.30;62.50
28297;DHT22;62078;49.366;8.172;2023-09-08T06:05:55;21.40;62.50
28297;DHT22;62078;49.366;8.172;2023-09-08T06:08:21;21.50;62.30
28297;DHT22;62078;49.366;8.172;2023-09-08T06:10:46;21.60;62.00
28297;DHT22;62078;49.366;8.172;2023-09-08T06:13:12;21.60;62.20
28297;DHT22;62078;49.366;8.172;2023-09-08T06:15:38;21.50;62.50
28297;DHT22;62078;49.366;8.172;2023-09-08T06:18:04;21.60;62.80
28297;DHT22;62078;49.366;8.172;2023-09-08T06:20:30;21.70;62.80
28297;DHT22;62078;49.366;8.172;2023-09-08T06:22:56;21.80;62.60
28297;DHT22;62078;49.366;8.172;2023-09-08T06:25:21;21.90;62.60
28297;DHT22;62078;49.366;8.172;2023-09-08T06:27:47;21.80;62.60
28297;DHT22;62078;49.366;8.172;2023-09-08T06:30:13;22.00;61.80
28297;DHT22;62078;49.366;8.172;2023-09-08T06:32:41;22.10;59.90
28297;DHT22;62078;49.366;8.172;2023-09-08T06:35:07;22.20;59.70
28297;DHT22;62078;49.366;8.172;2023-09-08T06:37:37;22.40;59.80
28297;DHT22;62078;49.366;8.172;2023-09-08T06:40:04;22.60;59.60
28297;DHT22;62078;49.366;8.172;2023-09-08T06:42:31;22.70;59.30
28297;DHT22;62078;49.366;8.172;2023-09-08T06:44:57;22.80;59.10
28297;DHT22;62078;49.366;8.172;2023-09-08T06:47:22;22.80;59.00
28297;DHT22;62078;49.366;8.172;2023-09-08T06:49:48;22.90;58.90
28297;DHT22;62078;49.366;8.172;2023-09-08T06:52:14;22.90;58.90
28297;DHT22;62078;49.366;8.172;2023-09-08T06:54:40;23.00;58.90
28297;DHT22;62078;49.366;8.172;2023-09-08T06:57:05;23.00;58.80
28297;DHT22;62078;49.366;8.172;2023-09-08T06:59:31;23.00;58.80
28297;DHT22;62078;49.366;8.172;2023-09-08T07:01:57;23.10;58.90
28297;DHT22;62078;49.366;8.172;2023-09-08T07:04:22;23.10;58.90
28297;DHT22;62078;49.366;8.172;2023-09-08T07:06:48;23.10;58.80
28297;DHT22;62078;49.366;8.172;2023-09-08T07:09:15;23.10;58.80
28297;DHT22;62078;49.366;8.172;2023-09-08T07:11:41;23.10;58.80
28297;DHT22;62078;49.366;8.172;2023-09-08T07:14:07;23.10;58.80
28297;DHT22;62078;49.366;8.172;2023-09-08T07:16:32;23.20;58.80
28297;DHT22;62078;49.366;8.172;2023-09-08T07:18:58;23.10;58.80
28297;DHT22;62078;49.366;8.172;2023-09-08T07:21:26;23.20;58.80
28297;DHT22;62078;49.366;8.172;2023-09-08T07:23:52;23.20;58.80
28297;DHT22;62078;49.366;8.172;2023-09-08T07:26:19;23.20;58.70
28297;DHT22;62078;49.366;8.172;2023-09-08T07:28:45;23.20;58.70
28297;DHT22;62078;49.366;8.172;2023-09-08T07:31:11;23.20;58.60
28297;DHT22;62078;49.366;8.172;2023-09-08T07:33:37;23.30;58.70
28297;DHT22;62078;49.366;8.172;2023-09-08T07:36:05;23.30;58.70
28297;DHT22;62078;49.366;8.172;2023-09-08T07:38:31;23.30;58.70
28297;DHT22;62078;49.366;8.172;2023-09-08T07:40:57;23.30;58.70
28297;DHT22;62078;49.366;8.172;2023-09-08T07:43:25;23.30;58.70
28297;DHT22;62078;49.366;8.172;2023-09-08T07:45:51;23.30;58.70
28297;DHT22;62078;49.366;8.172;2023-09-08T07:48:17;23.30;58.80
28297;DHT22;62078;49.366;8.172;2023-09-08T07:50:43;23.30;58.80
28297;DHT22;62078;49.366;8.172;2023-09-08T07:53:08;23.30;58.80
28297;DHT22;62078;49.366;8.172;2023-09-08T07:55:34;23.30;58.90
28297;DHT22;62078;49.366;8.172;2023-09-08T07:58:01;23.40;58.90
28297;DHT22;62078;49.366;8.172;2023-09-08T08:00:28;23.30;58.80
28297;DHT22;62078;49.366;8.172;2023-09-08T08:02:55;23.40;58.80
28297;DHT22;62078;49.366;8.172;2023-09-08T08:05:22;23.40;58.80
28297;DHT22;62078;49.366;8.172;2023-09-08T08:07:48;23.40;58.80
28297;DHT22;62078;49.366;8.172;2023-09-08T08:10:14;23.40;58.90
28297;DHT22;62078;49.366;8.172;2023-09-08T08:12:41;23.40;58.90
28297;DHT22;62078;49.366;8.172;2023-09-08T08:15:08;23.40;58.90
28297;DHT22;62078;49.366;8.172;2023-09-08T08:17:36;23.40;58.80
28297;DHT22;62078;49.366;8.172;2023-09-08T08:20:04;23.40;58.90
28297;DHT22;62078;49.366;8.172;2023-09-08T08:22:34;23.50;58.90
28297;DHT22;62078;49.366;8.172;2023-09-08T08:25:01;23.50;58.90
28297;DHT22;62078;49.366;8.172;2023-09-08T08:27:27;23.40;58.90
28297;DHT22;62078;49.366;8.172;2023-09-08T08:29:52;23.50;58.90
28297;DHT22;62078;49.366;8.172;2023-09-08T08:32:18;23.50;58.90
28297;DHT22;62078;49.366;8.172;2023-09-08T08:34:44;23.50;58.80
28297;DHT22;62078;49.366;8.172;2023-09-08T08:37:10;23.50;58.80
28297;DHT22;62078;49.366;8.172;2023-09-08T08:39:36;23.60;58.90
28297;DHT22;62078;49.366;8.172;2023-09-08T08:42:09;23.60;58.80
28297;DHT22;62078;49.366;8.172;2023-09-08T08:44:38;23.50;58.80
28297;DHT22;62078;49.366;8.172;2023-09-08T08:47:06;23.60;58.80
28297;DHT22;62078;49.366;8.172;2023-09-08T08:49:33;23.60;58.80
28297;DHT22;62078;49.366;8.172;2023-09-08T08:51:59;23.60;58.80
28297;DHT22;62078;49.366;8.172;2023-09-08T08:54:29;23.60;58.80
28297;DHT22;62078;49.366;8.172;2023-09-08T08:56:56;23.60;58.80
28297;DHT22;62078;49.366;8.172;2023-09-08T08:59:22;23.60;58.70
28297;DHT22;62078;49.366;8.172;2023-09-08T09:01:48;23.60;58.70
28297;DHT22;62078;49.366;8.172;2023-09-08T09:04:16;23.60;58.70
28297;DHT22;62078;49.366;8.172;2023-09-08T09:06:42;23.60;58.70
28297;DHT22;62078;49.366;8.172;2023-09-08T09:09:07;23.60;58.70
28297;DHT22;62078;49.366;8.172;2023-09-08T09:11:36;23.60;58.70
28297;DHT22;62078;49.366;8.172;2023-09-08T09:14:01;23.70;58.80
28297;DHT22;62078;49.366;8.172;2023-09-08T09:16:27;23.70;58.80
28297;DHT22;62078;49.366;8.172;2023-09-08T09:18:58;23.70;58.80
28297;DHT22;62078;49.366;8.172;2023-09-08T09:21:40;23.70;58.80
28297;DHT22;62078;49.366;8.172;2023-09-08T09:24:06;23.70;58.70
28297;DHT22;62078;49.366;8.172;2023-09-08T09:26:32;23.70;58.80
28297;DHT22;62078;49.366;8.172;2023-09-08T09:28:58;23.70;58.80
28297;DHT22;62078;49.366;8.172;2023-09-08T09:31:25;23.70;58.80
28297;DHT22;62078;49.366;8.172;2023-09-08T09:34:04;23.70;58.90
28297;DHT22;62078;49.366;8.172;2023-09-08T09:36:30;23.70;58.80
28297;DHT22;62078;49.366;8.172;2023-09-08T09:39:00;23.70;58.90
28297;DHT22;62078;49.366;8.172;2023-09-08T09:41:29;23.70;58.80
28297;DHT22;62078;49.366;8.172;2023-09-08T09:43:56;23.70;58.90
28297;DHT22;62078;49.366;8.172;2023-09-08T09:46:22;23.70;58.90
28297;DHT22;62078;49.366;8.172;2023-09-08T09:48:54;23.70;58.90
28297;DHT22;62078;49.366;8.172;2023-09-08T09:51:22;23.70;58.90
28297;DHT22;62078;49.366;8.172;2023-09-08T09:53:50;23.80;58.90
28297;DHT22;62078;49.366;8.172;2023-09-08T09:56:17;23.70;58.90
28297;DHT22;62078;49.366;8.172;2023-09-08T09:58:44;23.80;59.00
28297;DHT22;62078;49.366;8.172;2023-09-08T10:01:11;23.70;58.90
28297;DHT22;62078;49.366;8.172;2023-09-08T10:03:40;23.70;58.90
28297;DHT22;62078;49.366;8.172;2023-09-08T10:06:06;23.80;59.00
28297;DHT22;62078;49.366;8.172;2023-09-08T10:08:34;23.80;59.00
28297;DHT22;62078;49.366;8.172;2023-09-08T10:11:06;23.80;59.00
28297;DHT22;62078;49.366;8.172;2023-09-08T10:13:38;23.80;59.00
28297;DHT22;62078;49.366;8.172;2023-09-08T10:16:06;23.80;59.00
28297;DHT22;62078;49.366;8.172;2023-09-08T10:18:34;23.80;59.10
28297;DHT22;62078;49.366;8.172;2023-09-08T10:21:03;23.80;59.00
28297;DHT22;62078;49.366;8.172;2023-09-08T10:26:05;23.80;59.70
28297;DHT22;62078;49.366;8.172;2023-09-08T10:28:36;23.80;59.10
28297;DHT22;62078;49.366;8.172;2023-09-08T10:31:02;23.80;59.10
28297;DHT22;62078;49.366;8.172;2023-09-08T10:33:29;23.80;59.10
28297;DHT22;62078;49.366;8.172;2023-09-08T10:35:57;23.80;59.10
28297;DHT22;62078;49.366;8.172;2023-09-08T10:38:27;23.80;59.10
28297;DHT22;62078;49.366;8.172;2023-09-08T10:44:01;23.90;59.20
28297;DHT22;62078;49.366;8.172;2023-09-08T10:46:30;23.90;59.20
28297;DHT22;62078;49.366;8.172;2023-09-08T10:49:06;23.80;59.30
28297;DHT22;62078;49.366;8.172;2023-09-08T10:51:33;23.90;59.40
28297;DHT22;62078;49.366;8.172;2023-09-08T10:54:00;23.80;59.30
28297;DHT22;62078;49.366;8.172;2023-09-08T10:56:49;23.80;59.40
28297;DHT22;62078;49.366;8.172;2023-09-08T10:59:18;23.80;59.40
28297;DHT22;62078;49.366;8.172;2023-09-08T11:01:47;23.80;59.50
28297;DHT22;62078;49.366;8.172;2023-09-08T11:04:13;23.80;59.50
28297;DHT22;62078;49.366;8.172;2023-09-08T11:06:44;23.80;59.60
28297;DHT22;62078;49.366;8.172;2023-09-08T11:09:09;23.80;59.60
28297;DHT22;62078;49.366;8.172;2023-09-08T11:11:35;23.90;59.70
28297;DHT22;62078;49.366;8.172;2023-09-08T11:14:02;23.90;59.60
28297;DHT22;62078;49.366;8.172;2023-09-08T11:16:28;23.90;59.70
28297;DHT22;62078;49.366;8.172;2023-09-08T11:18:57;23.80;59.70
28297;DHT22;62078;49.366;8.172;2023-09-08T11:21:23;23.90;59.70
28297;DHT22;62078;49.366;8.172;2023-09-08T11:23:49;23.90;59.60
28297;DHT22;62078;49.366;8.172;2023-09-08T11:26:14;23.90;59.70
28297;DHT22;62078;49.366;8.172;2023-09-08T11:28:42;23.90;59.70
28297;DHT22;62078;49.366;8.172;2023-09-08T11:31:07;23.90;59.60
28297;DHT22;62078;49.366;8.172;2023-09-08T11:33:35;23.90;59.60
28297;DHT22;62078;49.366;8.172;2023-09-08T11:36:11;23.90;59.60
28297;DHT22;62078;49.366;8.172;2023-09-08T11:38:38;23.90;59.70
28297;DHT22;62078;49.366;8.172;2023-09-08T11:41:04;23.90;59.70
28297;DHT22;62078;49.366;8.172;2023-09-08T11:43:30;23.90;59.70
28297;DHT22;62078;49.366;8.172;2023-09-08T11:46:00;23.90;59.70
28297;DHT22;62078;49.366;8.172;2023-09-08T11:48:26;23.90;59.80
28297;DHT22;62078;49.366;8.172;2023-09-08T11:50:55;23.90;59.70
28297;DHT22;62078;49.366;8.172;2023-09-08T11:53:21;23.90;59.80
28297;DHT22;62078;49.366;8.172;2023-09-08T11:55:48;23.90;59.80
28297;DHT22;62078;49.366;8.172;2023-09-08T11:58:15;23.90;59.80
28297;DHT22;62078;49.366;8.172;2023-09-08T12:00:41;23.90;59.80
28297;DHT22;62078;49.366;8.172;2023-09-08T12:03:14;23.90;59.90
28297;DHT22;62078;49.366;8.172;2023-09-08T12:05:44;23.90;59.90
28297;DHT22;62078;49.366;8.172;2023-09-08T12:08:15;23.90;59.80
28297;DHT22;62078;49.366;8.172;2023-09-08T12:10:42;23.90;59.90
28297;DHT22;62078;49.366;8.172;2023-09-08T12:13:08;23.90;60.50
28297;DHT22;62078;49.366;8.172;2023-09-08T12:15:41;23.90;59.90
28297;DHT22;62078;49.366;8.172;2023-09-08T12:18:08;23.90;59.90
28297;DHT22;62078;49.366;8.172;2023-09-08T12:20:35;23.90;59.90
28297;DHT22;62078;49.366;8.172;2023-09-08T12:23:03;23.90;59.90
28297;DHT22;62078;49.366;8.172;2023-09-08T12:25:29;23.90;60.00
28297;DHT22;62078;49.366;8.172;2023-09-08T12:27:59;23.90;60.00
28297;DHT22;62078;49.366;8.172;2023-09-08T12:30:26;23.90;60.10
28297;DHT22;62078;49.366;8.172;2023-09-08T12:32:57;23.90;60.20
28297;DHT22;62078;49.366;8.172;2023-09-08T12:35:24;23.90;60.20
28297;DHT22;62078;49.366;8.172;2023-09-08T12:38:00;24.00;60.30
28297;DHT22;62078;49.366;8.172;2023-09-08T12:40:28;23.90;60.30
28297;DHT22;62078;49.366;8.172;2023-09-08T12:42:54;23.90;60.30
28297;DHT22;62078;49.366;8.172;2023-09-08T12:45:21;23.90;60.60
28297;DHT22;62078;49.366;8.172;2023-09-08T12:47:48;23.90;60.40
28297;DHT22;62078;49.366;8.172;2023-09-08T12:50:13;23.90;60.50
28297;DHT22;62078;49.366;8.172;2023-09-08T12:52:39;23.90;60.50
28297;DHT22;62078;49.366;8.172;2023-09-08T12:55:06;23.90;60.60
28297;DHT22;62078;49.366;8.172;2023-09-08T12:57:32;23.90;60.50
28297;DHT22;62078;49.366;8.172;2023-09-08T12:59:58;24.00;60.50
28297;DHT22;62078;49.366;8.172;2023-09-08T13:02:24;24.00;60.50
28297;DHT22;62078;49.366;8.172;2023-09-08T13:04:50;24.00;60.50
28297;DHT22;62078;49.366;8.172;2023-09-08T13:07:16;24.00;60.60
28297;DHT22;62078;49.366;8.172;2023-09-08T13:09:42;24.00;60.60
28297;DHT22;62078;49.366;8.172;2023-09-08T13:12:07;24.00;60.60
28297;DHT22;62078;49.366;8.172;2023-09-08T13:14:34;24.00;60.60
28297;DHT22;62078;49.366;8.172;2023-09-08T13:17:01;24.00;60.50
28297;DHT22;62078;49.366;8.172;2023-09-08T13:19:26;24.00;60.60
28297;DHT22;62078;49.366;8.172;2023-09-08T13:21:52;24.00;60.60
28297;DHT22;62078;49.366;8.172;2023-09-08T13:24:18;24.00;60.60
28297;DHT22;62078;49.366;8.172;2023-09-08T13:26:45;24.00;60.60
28297;DHT22;62078;49.366;8.172;2023-09-08T13:29:11;24.00;60.60
28297;DHT22;62078;49.366;8.172;2023-09-08T13:31:37;24.00;60.70
28297;DHT22;62078;49.366;8.172;2023-09-08T13:34:02;24.00;60.70
28297;DHT22;62078;49.366;8.172;2023-09-08T13:36:28;24.00;60.60
28297;DHT22;62078;49.366;8.172;2023-09-08T13:38:54;24.00;60.70
28297;DHT22;62078;49.366;8.172;2023-09-08T13:41:19;24.00;60.60
28297;DHT22;62078;49.366;8.172;2023-09-08T13:43:45;24.00;60.80
28297;DHT22;62078;49.366;8.172;2023-09-08T13:46:11;24.00;60.70
28297;DHT22;62078;49.366;8.172;2023-09-08T13:48:37;24.00;60.90
28297;DHT22;62078;49.366;8.172;2023-09-08T13:51:03;24.00;60.80
28297;DHT22;62078;49.366;8.172;2023-09-08T13:53:29;24.00;60.80
28297;DHT22;62078;49.366;8.172;2023-09-08T13:55:56;24.00;60.80
28297;DHT22;62078;49.366;8.172;2023-09-08T13:58:22;24.00;60.80
28297;DHT22;62078;49.366;8.172;2023-09-08T14:00:48;24.00;60.80
28297;DHT22;62078;49.366;8.172;2023-09-08T14:03:19;24.10;61.00
28297;DHT22;62078;49.366;8.172;2023-09-08T14:05:45;24.00;60.80
28297;DHT22;62078;49.366;8.172;2023-09-08T14:08:11;24.00;60.80
28297;DHT22;62078;49.366;8.172;2023-09-08T14:10:36;24.00;60.90
28297;DHT22;62078;49.366;8.172;2023-09-08T14:13:02;24.00;60.90
28297;DHT22;62078;49.366;8.172;2023-09-08T14:15:28;24.00;60.90
28297;DHT22;62078;49.366;8.172;2023-09-08T14:17:53;24.00;60.80
28297;DHT22;62078;49.366;8.172;2023-09-08T14:20:19;24.00;60.80
28297;DHT22;62078;49.366;8.172;2023-09-08T14:22:45;24.10;60.90
28297;DHT22;62078;49.366;8.172;2023-09-08T14:25:11;24.10;61.20
28297;DHT22;62078;49.366;8.172;2023-09-08T14:27:37;24.00;60.70
28297;DHT22;62078;49.366;8.172;2023-09-08T14:30:06;24.00;60.60
28297;DHT22;62078;49.366;8.172;2023-09-08T14:32:32;24.00;60.60
28297;DHT22;62078;49.366;8.172;2023-09-08T14:34:58;24.00;60.60
28297;DHT22;62078;49.366;8.172;2023-09-08T14:37:24;24.00;60.50
28297;DHT22;62078;49.366;8.172;2023-09-08T14:39:49;24.10;60.40
28297;DHT22;62078;49.366;8.172;2023-09-08T14:42:15;24.10;60.40
28297;DHT22;62078;49.366;8.172;2023-09-08T14:44:41;24.10;60.40
28297;DHT22;62078;49.366;8.172;2023-09-08T14:47:07;24.10;60.30
28297;DHT22;62078;49.366;8.172;2023-09-08T14:49:34;24.10;60.40
28297;DHT22;62078;49.366;8.172;2023-09-08T14:52:00;24.10;60.40
28297;DHT22;62078;49.366;8.172;2023-09-08T14:54:25;24.10;60.30
28297;DHT22;62078;49.366;8.172;2023-09-08T14:56:51;24.10;60.30
28297;DHT22;62078;49.366;8.172;2023-09-08T14:59:17;24.10;60.20
28297;DHT22;62078;49.366;8.172;2023-09-08T15:01:43;24.10;60.20
28297;DHT22;62078;49.366;8.172;2023-09-08T15:04:10;24.10;60.10
28297;DHT22;62078;49.366;8.172;2023-09-08T15:06:36;24.20;60.60
28297;DHT22;62078;49.366;8.172;2023-09-08T15:09:02;24.20;61.00
28297;DHT22;62078;49.366;8.172;2023-09-08T15:11:28;24.20;60.90
28297;DHT22;62078;49.366;8.172;2023-09-08T15:13:54;24.20;60.80
28297;DHT22;62078;49.366;8.172;2023-09-08T15:16:20;24.20;61.50
28297;DHT22;62078;49.366;8.172;2023-09-08T15:18:47;24.20;61.60
28297;DHT22;62078;49.366;8.172;2023-09-08T15:21:12;24.20;61.80
28297;DHT22;62078;49.366;8.172;2023-09-08T15:23:38;24.20;62.10
28297;DHT22;62078;49.366;8.172;2023-09-08T15:26:04;24.20;62.20
28297;DHT22;62078;49.366;8.172;2023-09-08T15:28:30;24.20;62.10
28297;DHT22;62078;49.366;8.172;2023-09-08T15:30:55;24.20;62.00
28297;DHT22;62078;49.366;8.172;2023-09-08T15:33:21;24.30;61.80
28297;DHT22;62078;49.366;8.172;2023-09-08T15:35:53;24.20;61.60